Time;durP1;ratioP1;P1;durP2;ratioP2;P2;SDS_P1;SDS_P2;PMS_P1;PMS_P2;Temp;Humidity;BMP_temperature;BMP_pressure;BME280_temperature;BME280_humidity;BME280_pressure;Samples;Min_cycle;Max_cycle;Signal;HPM_P1;HPM_P2
2021/09/19 00:00:30;;;;;;;1.65;0.30;;;;;;;17.73;60.67;100080.09;5017605;28;20042;-74
2021/09/19 00:02:55;;;;;;;3.50;0.50;;;;;;;17.72;60.83;100085.97;5013502;28;20033;-74
2021/09/19 00:05:21;;;;;;;2.63;2.53;;;;;;;17.63;61.17;100078.44;5020277;28;20165;-76
2021/09/19 00:07:46;;;;;;;2.30;2.20;;;;;;;17.59;61.57;100088.50;5018946;28;20444;-76
2021/09/19 00:10:24;;;;;;;2.53;2.42;;;;;;;17.51;61.72;100092.09;5024434;28;20029;-76
2021/09/19 00:12:55;;;;;;;1.35;1.35;;;;;;;17.46;61.65;100086.69;5023991;28;20069;-77
2021/09/19 00:15:21;;;;;;;1.02;1.02;;;;;;;17.44;61.90;100084.25;5004975;28;20050;-76
2021/09/19 00:17:47;;;;;;;1.08;1.08;;;;;;;17.47;62.03;100088.34;5012258;28;20089;-76
2021/09/19 00:20:31;;;;;;;1.52;1.48;;;;;;;17.42;61.87;100077.41;4995740;28;20042;-75
2021/09/19 00:22:57;;;;;;;4.15;3.85;;;;;;;17.41;62.38;100090.41;5351611;23;20050;-76
2021/09/19 00:25:25;;;;;;;3.42;3.25;;;;;;;17.30;62.94;100074.47;5023861;28;20065;-78
2021/09/19 00:27:50;;;;;;;3.08;2.88;;;;;;;17.20;62.90;100067.25;4977629;28;20068;-77
2021/09/19 00:30:16;;;;;;;2.55;2.38;;;;;;;17.20;63.11;100072.78;4963746;28;20030;-78
2021/09/19 00:32:41;;;;;;;1.27;1.10;;;;;;;17.10;62.73;100063.66;5014383;28;20036;-75
2021/09/19 00:35:08;;;;;;;0.93;0.93;;;;;;;17.12;63.06;100059.78;4988147;28;20030;-76
2021/09/19 00:37:36;;;;;;;0.98;0.98;;;;;;;17.13;62.86;100061.38;5005623;28;20486;-76
2021/09/19 00:40:03;;;;;;;4.40;0.60;;;;;;;17.09;62.62;100050.16;5001951;28;20078;-75
2021/09/19 00:42:28;;;;;;;0.70;0.70;;;;;;;17.10;62.85;100055.38;5016830;28;20040;-76
2021/09/19 00:45:03;;;;;;;1.67;1.58;;;;;;;17.08;62.84;100052.13;5005287;28;20034;-76
2021/09/19 00:47:31;;;;;;;1.70;1.60;;;;;;;17.09;63.16;100055.69;5014284;28;20075;-76
2021/09/19 00:49:56;;;;;;;0.90;0.90;;;;;;;17.09;62.95;100045.44;5023023;28;20279;-76
2021/09/19 00:52:22;;;;;;;0.73;0.73;;;;;;;17.15;62.76;100057.16;4985353;28;20380;-76
2021/09/19 00:54:49;;;;;;;2.67;2.58;;;;;;;17.15;63.14;100065.47;4998989;28;20053;-75
2021/09/19 00:57:15;;;;;;;2.50;2.35;;;;;;;17.12;63.44;100071.63;5021058;28;20033;-76
2021/09/19 00:59:44;;;;;;;2.35;2.25;;;;;;;17.09;63.57;100063.97;5020411;28;20213;-76
2021/09/19 01:02:09;;;;;;;4.05;3.47;;;;;;;17.02;63.84;100063.63;5001615;28;20017;-77
2021/09/19 01:04:35;;;;;;;2.47;2.38;;;;;;;17.00;63.84;100063.94;5018898;28;20041;-75
2021/09/19 01:07:01;;;;;;;1.98;1.88;;;;;;;17.03;63.71;100055.03;5005743;28;20052;-74
2021/09/19 01:09:27;;;;;;;1.13;1.10;;;;;;;17.03;63.63;100051.44;4971287;28;20029;-75
2021/09/19 01:22:43;;;;;;;3.30;3.10;;;;;;;16.93;64.26;100061.63;5026043;28;20040;-76
2021/09/19 01:25:56;;;;;;;5.40;5.13;;;;;;;16.85;65.08;100067.91;4996781;28;20043;-76
2021/09/19 01:29:22;;;;;;;6.32;6.03;;;;;;;16.72;65.37;100057.78;4998574;28;20034;-77
2021/09/19 01:47:35;;;;;;;0.77;0.77;;;;;;;16.26;66.36;100029.38;4982935;28;20041;-75
2021/09/19 01:50:00;;;;;;;0.77;0.77;;;;;;;16.40;66.36;100048.66;4969258;28;20078;-75
2021/09/19 01:52:30;;;;;;;0.88;0.88;;;;;;;16.40;65.96;100045.88;5021530;28;20054;-74
2021/09/19 01:54:56;;;;;;;1.88;1.77;;;;;;;16.44;66.30;100041.38;5015039;28;20025;-74
2021/09/19 01:57:22;;;;;;;1.85;1.75;;;;;;;16.47;66.38;100040.75;5004304;28;20053;-73
2021/09/19 01:59:56;;;;;;;1.35;1.35;;;;;;;16.50;66.36;100040.09;4989010;28;20034;-75
2021/09/19 02:02:22;;;;;;;1.83;1.73;;;;;;;16.48;66.71;100036.03;5016504;28;20389;-75
2021/09/19 02:05:13;;;;;;;3.33;3.08;;;;;;;16.52;66.54;100037.03;5021322;28;20518;-75
2021/09/19 02:27:37;;;;;;;;;;;;;;;;;;;;;
2021/09/19 02:33:59;;;;;;;1.77;1.67;;;;;;;16.95;67.99;100035.66;4886421;29;20077;-75
2021/09/19 02:36:25;;;;;;;1.42;1.35;;;;;;;16.96;68.10;100037.28;4878423;29;20048;-77
2021/09/19 02:38:50;;;;;;;0.73;0.70;;;;;;;17.04;68.12;100033.72;4966105;28;20050;-76
2021/09/19 02:41:16;;;;;;;0.45;0.45;;;;;;;17.09;67.81;100037.16;4982179;28;20037;-75
2021/09/19 02:43:42;;;;;;;0.40;0.40;;;;;;;17.14;67.42;100038.16;4992380;28;20039;-76
2021/09/19 02:46:07;;;;;;;0.68;0.68;;;;;;;17.19;67.59;100049.88;5000778;28;20023;-75
2021/09/19 02:48:32;;;;;;;0.30;0.30;;;;;;;17.23;67.43;100036.22;5000743;28;20038;-76
2021/09/19 02:51:00;;;;;;;0.77;0.73;;;;;;;17.26;67.36;100050.22;4981172;28;20030;-77
2021/09/19 02:53:26;;;;;;;0.90;0.90;;;;;;;17.27;67.32;100051.03;4984037;28;20037;-76
2021/09/19 02:56:12;;;;;;;1.10;0.90;;;;;;;17.20;67.45;100048.75;4982103;28;20084;-74
2021/09/19 02:58:38;;;;;;;1.58;1.33;;;;;;;17.25;67.61;100054.13;4993327;28;20512;-74
2021/09/19 03:01:04;;;;;;;1.20;1.20;;;;;;;17.23;68.17;100056.41;4972685;28;20038;-78
2021/09/19 03:04:17;;;;;;;2.00;1.90;;;;;;;17.20;68.30;100054.28;4969275;28;20034;-75
2021/09/19 03:06:46;;;;;;;2.40;2.20;;;;;;;17.07;68.52;100044.16;4994459;28;20039;-75
2021/09/19 03:09:13;;;;;;;1.90;1.80;;;;;;;17.10;68.64;100049.03;4963703;28;20069;-76
2021/09/19 03:11:43;;;;;;;2.30;1.65;;;;;;;17.10;68.44;100057.34;4966409;28;20033;-76
2021/09/19 03:14:20;;;;;;;1.25;1.23;;;;;;;17.14;68.40;100052.78;4947699;28;20030;-75
2021/09/19 03:22:18;;;;;;;0.65;0.65;;;;;;;17.23;68.19;100056.41;1236086;26;20058;-77
2021/09/19 03:24:54;;;;;;;0.68;0.68;;;;;;;17.24;68.18;100043.38;4975601;28;20033;-77
2021/09/19 03:27:28;;;;;;;;;;;;;;;17.33;67.65;100049.75;4970546;28;20030;-78
2021/09/19 03:29:57;;;;;;;0.57;0.57;;;;;;;17.32;68.01;100047.31;4990107;28;19961;-78
2021/09/19 03:32:31;;;;;;;0.40;0.40;;;;;;;17.30;67.93;100033.00;4964573;28;20541;-74
2021/09/19 03:35:18;;;;;;;0.43;0.40;;;;;;;17.42;67.62;100041.47;4995078;28;20433;-76
2021/09/19 03:37:44;;;;;;;0.35;0.35;;;;;;;17.50;67.51;100048.19;4996912;28;20063;-76
2021/09/19 03:40:12;;;;;;;0.20;0.20;;;;;;;17.50;67.13;100043.47;4970270;28;20030;-76
2021/09/19 03:42:39;;;;;;;0.45;0.45;;;;;;;17.57;67.29;100046.56;4973980;28;20034;-77
2021/09/19 03:45:06;;;;;;;0.40;0.40;;;;;;;17.60;66.90;100045.91;4971158;28;20496;-76
2021/09/19 03:48:08;;;;;;;0.43;0.43;;;;;;;17.68;66.76;100049.03;4970969;28;20473;-75
2021/09/19 03:53:33;;;;;;;1.23;0.82;;;;;;;17.63;66.71;100052.75;4955272;28;20580;-75
2021/09/19 03:55:58;;;;;;;0.88;0.70;;;;;;;17.63;66.70;100064.63;4961051;28;20102;-73
2021/09/19 03:58:24;;;;;;;0.60;0.60;;;;;;;17.59;66.85;100060.06;4959371;28;20024;-76
2021/09/19 04:00:49;;;;;;;1.40;0.73;;;;;;;17.57;66.76;100060.38;4955930;28;20025;-76
2021/09/19 04:03:15;;;;;;;0.98;0.70;;;;;;;17.52;67.01;100063.31;4959092;28;20116;-76
2021/09/19 04:05:40;;;;;;;0.82;0.65;;;;;;;17.50;66.69;100073.88;4959555;28;20058;-76
2021/09/19 04:08:06;;;;;;;0.68;0.68;;;;;;;17.47;67.03;100074.50;4943325;29;20043;-76
2021/09/19 04:10:32;;;;;;;0.70;0.70;;;;;;;17.43;66.68;100081.81;4946845;28;20035;-75
2021/09/19 04:12:58;;;;;;;0.60;0.60;;;;;;;17.39;67.19;100080.81;4956807;28;20039;-75
2021/09/19 04:15:23;;;;;;;1.20;1.10;;;;;;;17.32;67.39;100092.34;4958214;28;20031;-75
2021/09/19 04:17:49;;;;;;;1.13;1.13;;;;;;;17.25;67.42;100083.72;4960442;28;20034;-76
2021/09/19 04:20:14;;;;;;;2.47;2.28;;;;;;;17.19;67.75;100091.31;4944600;28;20432;-75
2021/09/19 04:22:41;;;;;;;1.63;1.50;;;;;;;17.12;67.97;100093.72;4959260;28;20106;-74
2021/09/19 04:25:10;;;;;;;2.45;1.83;;;;;;;17.01;68.42;100092.38;4940358;28;20039;-76
2021/09/19 04:27:37;;;;;;;2.10;1.50;;;;;;;16.92;68.84;100093.16;4942546;28;20027;-75
2021/09/19 04:30:56;;;;;;;4.18;2.22;;;;;;;16.87;68.92;100092.44;4942159;28;20118;-77
2021/09/19 04:33:23;;;;;;;1.80;1.70;;;;;;;16.75;68.81;100104.06;4955683;28;20031;-74
2021/09/19 04:35:50;;;;;;;2.00;1.90;;;;;;;16.66;69.11;100095.75;4936240;28;20069;-74
2021/09/19 04:38:17;;;;;;;2.58;1.55;;;;;;;16.60;69.24;100093.41;4957561;28;20062;-75
2021/09/19 04:40:45;;;;;;;2.00;1.40;;;;;;;16.54;69.18;100092.72;4937964;29;20035;-75
2021/09/19 04:43:13;;;;;;;2.90;1.35;;;;;;;16.48;68.87;100097.53;4925175;29;20189;-76
2021/09/19 04:45:42;;;;;;;1.23;1.13;;;;;;;16.45;68.87;100100.94;4944428;28;20043;-74
2021/09/19 04:48:10;;;;;;;3.15;0.93;;;;;;;16.36;69.09;100100.88;4957586;28;20055;-75
2021/09/19 04:50:36;;;;;;;2.25;0.85;;;;;;;16.37;68.92;100108.03;4957841;28;20039;-75
2021/09/19 04:53:02;;;;;;;6.38;1.00;;;;;;;16.30;68.92;100101.31;4829244;29;2794942;-74
2021/09/19 04:55:27;;;;;;;1.67;1.33;;;;;;;16.22;69.15;100106.44;4942125;29;20405;-75
2021/09/19 04:57:53;;;;;;;1.25;1.00;;;;;;;16.23;69.24;100118.28;4941563;28;20023;-74
2021/09/19 05:00:20;;;;;;;0.90;0.90;;;;;;;16.14;69.51;100115.47;4946392;29;20031;-75
2021/09/19 05:02:46;;;;;;;2.08;0.88;;;;;;;16.14;70.07;100120.97;4947899;29;20035;-75
2021/09/19 05:05:14;;;;;;;1.85;0.73;;;;;;;16.07;70.41;100120.59;4938887;29;20019;-76
2021/09/19 05:07:43;;;;;;;3.38;0.80;;;;;;;15.98;70.51;100122.44;4928222;29;20038;-77
2021/09/19 05:10:39;;;;;;;1.83;0.75;;;;;;;16.00;70.52;100122.94;4944685;29;20030;-74
2021/09/19 05:13:06;;;;;;;4.05;0.70;;;;;;;15.95;70.41;100123.06;4960614;28;20066;-75
2021/09/19 05:18:12;;;;;;;1.35;0.40;;;;;;;15.91;70.43;100128.38;1309628;26;20070;-74
2021/09/19 05:20:37;;;;;;;0.68;0.60;;;;;;;15.83;70.64;100127.16;5019177;28;20383;-75
2021/09/19 05:23:03;;;;;;;4.03;0.60;;;;;;;15.83;70.83;100129.94;4986542;28;20037;-76
2021/09/19 05:25:29;;;;;;;0.98;0.50;;;;;;;15.83;70.24;100120.84;5019272;28;20029;-76
2021/09/19 05:27:55;;;;;;;0.35;0.30;;;;;;;15.80;70.72;100119.53;5016507;28;20022;-76
2021/09/19 05:30:21;;;;;;;3.42;0.70;;;;;;;15.80;70.24;100127.78;5018138;28;20116;-73
2021/09/19 05:32:47;;;;;;;1.33;0.60;;;;;;;15.79;70.37;100114.31;4994547;28;20100;-73
2021/09/19 05:35:12;;;;;;;0.98;0.50;;;;;;;15.79;70.19;100117.06;5003267;28;20022;-74
2021/09/19 05:37:37;;;;;;;0.35;0.32;;;;;;;15.80;70.05;100119.53;4996657;28;20097;-77
2021/09/19 05:40:05;;;;;;;1.40;0.68;;;;;;;15.80;69.62;100118.69;5019833;28;20045;-78
2021/09/19 05:42:34;;;;;;;1.60;0.82;;;;;;;15.81;69.71;100120.31;5012497;28;20097;-77
2021/09/19 05:44:59;;;;;;;2.50;0.93;;;;;;;15.74;70.09;100120.72;5013850;28;20046;-76
2021/09/19 05:47:25;;;;;;;0.88;0.50;;;;;;;15.73;70.02;100132.88;5000154;28;20025;-77
2021/09/19 05:49:50;;;;;;;0.52;0.32;;;;;;;15.68;70.10;100130.22;4988179;28;20186;-78
2021/09/19 05:52:16;;;;;;;1.25;0.32;;;;;;;15.64;69.96;100127.25;5019958;28;20031;-77
2021/09/19 05:54:41;;;;;;;0.50;0.43;;;;;;;15.68;69.92;100135.72;4983486;28;20018;-77
2021/09/19 05:57:07;;;;;;;0.50;0.30;;;;;;;15.71;69.88;100135.09;4985378;28;20037;-77
2021/09/19 05:59:32;;;;;;;0.70;0.50;;;;;;;15.75;69.69;100129.81;5000966;28;20093;-77
2021/09/19 06:01:57;;;;;;;1.13;0.57;;;;;;;15.76;69.38;100140.53;5019627;28;20038;-77
2021/09/19 06:04:23;;;;;;;0.43;0.30;;;;;;;15.79;69.21;100150.97;5030576;28;20108;-77
2021/09/19 06:06:49;;;;;;;0.55;0.30;;;;;;;15.79;69.32;100148.22;5004871;28;20029;-76
2021/09/19 06:09:30;;;;;;;1.23;0.60;;;;;;;15.80;69.40;100149.00;5024605;28;20037;-77
2021/09/19 06:11:56;;;;;;;1.50;0.38;;;;;;;15.81;69.00;100157.00;4994609;28;20030;-78
2021/09/19 06:14:22;;;;;;;2.03;0.45;;;;;;;15.77;69.12;100155.94;4999543;28;20057;-78
2021/09/19 06:16:48;;;;;;;1.23;0.25;;;;;;;15.77;69.22;100149.59;5010227;28;20049;-77
2021/09/19 06:19:24;;;;;;;0.73;0.32;;;;;;;15.85;69.47;100151.69;4997103;28;20123;-78
2021/09/19 06:21:59;;;;;;;1.55;0.45;;;;;;;15.85;69.16;100151.69;4986675;28;20069;-77
2021/09/19 06:24:36;;;;;;;0.52;0.22;;;;;;;15.85;69.00;100148.91;4987927;28;20029;-78
2021/09/19 06:27:24;;;;;;;0.30;0.30;;;;;;;15.92;69.21;100151.28;5003343;28;20027;-77
2021/09/19 06:30:49;;;;;;;0.10;0.10;;;;;;;15.98;68.90;100161.88;5006203;28;20037;-76
2021/09/19 06:33:32;;;;;;;0.75;0.30;;;;;;;15.98;68.65;100161.06;4986842;28;20041;-78
2021/09/19 06:36:39;;;;;;;0.15;0.10;;;;;;;16.13;68.34;100162.66;5003508;28;20495;-78
2021/09/19 06:39:09;;;;;;;0.20;0.17;;;;;;;16.13;68.30;100174.50;4993873;28;20025;-75
2021/09/19 06:45:29;;;;;;;;;;;;;;;;;;;;;
2021/09/19 06:48:13;;;;;;;;;;;;;;;;;;;;;
2021/09/19 06:51:35;;;;;;;;;;;;;;;;;;;;;
2021/09/19 06:57:46;;;;;;;;;;;;;;;;;;;;;
2021/09/19 07:00:49;;;;;;;0.32;0.20;;;;;;;16.23;66.64;100179.78;4892785;29;20037;-75
2021/09/19 07:04:28;;;;;;;;;;;;;;;;;;;;;
2021/09/19 07:07:23;;;;;;;0.50;0.20;;;;;;;16.26;66.44;100194.09;4834902;29;20126;-74
2021/09/19 07:10:45;;;;;;;0.77;0.30;;;;;;;16.07;66.56;100170.22;4816236;29;20083;-75
2021/09/19 07:18:45;;;;;;;0.10;0.10;;;;;;;16.34;66.53;100179.56;5240939;23;20058;-74
2021/09/19 07:24:57;;;;;;;0.20;0.10;;;;;;;16.75;65.85;100170.34;4934280;29;20050;-74
2021/09/19 07:37:23;;;;;;;0.25;0.00;;;;;;;17.06;64.97;100199.97;5020470;28;20083;-75
2021/09/19 07:39:51;;;;;;;0.50;0.10;;;;;;;17.18;65.01;100204.91;5021560;28;20594;-75
2021/09/19 07:42:20;;;;;;;0.20;0.10;;;;;;;17.23;64.68;100193.72;4976267;28;20031;-76
2021/09/19 09:51:00;;;;;;;3.50;0.47;;;;;;;20.58;54.37;100294.72;5353327;23;19922;-73
2021/09/19 09:53:26;;;;;;;1.65;0.50;;;;;;;20.67;53.15;100306.59;5000821;28;20073;-72
2021/09/19 09:56:07;;;;;;;0.98;0.47;;;;;;;20.89;53.26;100312.97;4984021;28;20027;-73
2021/09/19 09:58:33;;;;;;;0.50;0.20;;;;;;;20.95;52.62;100311.63;4977337;28;20022;-72
2021/09/19 10:01:04;;;;;;;2.08;0.45;;;;;;;20.94;52.52;100307.25;4962914;28;20094;-72
2021/09/19 10:06:47;;;;;;;0.55;0.20;;;;;;;21.02;52.47;100309.13;5623619;23;20499;-72
2021/09/19 10:09:12;;;;;;;0.17;0.15;;;;;;;21.37;53.83;100306.03;4972323;28;20027;-73
2021/09/19 10:11:38;;;;;;;0.50;0.20;;;;;;;21.84;54.29;100307.69;4976419;28;20083;-72
2021/09/19 10:14:04;;;;;;;0.47;0.30;;;;;;;22.40;53.20;100312.75;4971495;28;20043;-71
2021/09/19 10:16:32;;;;;;;0.98;0.32;;;;;;;22.88;52.69;100315.81;4976345;28;20035;-70
2021/09/19 10:19:00;;;;;;;1.67;0.30;;;;;;;23.41;51.97;100310.19;4978947;28;20049;-71
2021/09/19 10:21:26;;;;;;;0.73;0.38;;;;;;;23.92;49.90;100317.13;4983157;28;20077;-70
2021/09/19 10:23:55;;;;;;;0.70;0.40;;;;;;;24.37;48.75;100315.84;4980366;28;20050;-73
2021/09/19 10:26:30;;;;;;;0.77;0.20;;;;;;;24.97;49.61;100320.41;4961347;28;20046;-74
2021/09/19 10:29:12;;;;;;;5.85;0.60;;;;;;;25.73;46.91;100312.38;4964325;28;20109;-74
2021/09/19 10:31:56;;;;;;;0.52;0.20;;;;;;;26.56;46.93;100319.38;4980836;28;20031;-75
2021/09/19 10:34:35;;;;;;;0.63;0.30;;;;;;;27.43;45.87;100320.53;4971798;28;20041;-77
2021/09/19 10:37:01;;;;;;;0.93;0.38;;;;;;;27.94;40.18;100319.84;4994012;28;20140;-76
2021/09/19 10:40:02;;;;;;;2.53;0.40;;;;;;;28.43;38.10;100319.84;4963055;28;20039;-77
2021/09/19 10:43:16;;;;;;;2.20;0.70;;;;;;;29.15;38.81;100334.38;4980987;28;20039;-75
2021/09/19 10:45:51;;;;;;;2.55;0.73;;;;;;;29.72;35.10;100328.91;4990188;28;20020;-72
2021/09/19 10:48:44;;;;;;;0.98;0.35;;;;;;;30.36;34.88;100329.38;5002620;28;20053;-71
2021/09/19 10:51:31;;;;;;;1.00;0.60;;;;;;;31.10;33.85;100322.00;4978193;28;20039;-71
2021/09/19 10:54:02;;;;;;;4.30;0.55;;;;;;;31.49;31.55;100323.00;4968032;28;20026;-71
2021/09/19 10:56:31;;;;;;;0.98;0.32;;;;;;;32.15;31.33;100327.84;4977179;28;20031;-72
2021/09/19 10:59:00;;;;;;;0.40;0.20;;;;;;;32.56;31.36;100333.94;4959390;28;20116;-71
2021/09/19 11:01:29;;;;;;;0.28;0.28;;;;;;;32.50;31.10;100323.06;4989600;28;20035;-72
2021/09/19 11:04:01;;;;;;;0.60;0.40;;;;;;;32.47;29.45;100320.28;4968752;28;20055;-72
2021/09/19 11:07:19;;;;;;;0.50;0.40;;;;;;;32.44;28.05;100327.59;4978182;28;20050;-70
2021/09/19 11:16:03;;;;;;;0.30;0.30;;;;;;;32.18;26.43;100332.69;4770846;26;20050;-71
2021/09/19 11:18:29;;;;;;;0.50;0.30;;;;;;;32.33;25.72;100336.19;4991841;28;20070;-71
2021/09/19 11:21:10;;;;;;;0.45;0.40;;;;;;;33.03;24.68;100342.75;4997884;28;20038;-71
2021/09/19 11:23:37;;;;;;;0.80;0.30;;;;;;;33.18;24.58;100332.84;4995056;28;20027;-72
2021/09/19 11:26:03;;;;;;;1.30;0.30;;;;;;;33.84;25.13;100336.44;4992805;28;20033;-70
2021/09/19 11:28:32;;;;;;;0.98;0.40;;;;;;;34.16;23.65;100340.78;4993050;28;20499;-72
2021/09/19 11:30:58;;;;;;;0.50;0.20;;;;;;;34.03;22.79;100343.44;4982737;28;20066;-73
2021/09/19 11:33:23;;;;;;;0.52;0.30;;;;;;;33.40;23.63;100338.28;4991930;28;20054;-73
2021/09/19 11:35:49;;;;;;;0.52;0.40;;;;;;;32.81;25.03;100333.69;4986916;28;20109;-72
2021/09/19 11:38:19;;;;;;;0.70;0.38;;;;;;;33.13;25.00;100336.16;4999196;28;20026;-73
2021/09/19 11:40:45;;;;;;;0.98;0.45;;;;;;;33.57;24.81;100342.06;5000422;28;20026;-73
2021/09/19 11:43:10;;;;;;;0.70;0.40;;;;;;;34.08;25.18;100339.28;4986946;28;20085;-74
2021/09/19 11:45:38;;;;;;;0.45;0.30;;;;;;;34.05;24.80;100345.84;5007437;28;20031;-74
2021/09/19 11:48:06;;;;;;;0.40;0.30;;;;;;;33.62;24.49;100335.16;4989646;28;20030;-74
2021/09/19 11:50:36;;;;;;;1.75;0.50;;;;;;;33.42;24.01;100343.50;5005182;28;20018;-72
2021/09/19 11:53:05;;;;;;;0.38;0.38;;;;;;;32.94;24.40;100333.97;4983674;28;20022;-72
2021/09/19 11:55:31;;;;;;;2.05;0.35;;;;;;;32.26;25.47;100329.81;4978822;28;20485;-73
2021/09/19 11:57:56;;;;;;;0.38;0.25;;;;;;;32.40;26.48;100343.78;5002596;28;20034;-71
2021/09/19 12:00:22;;;;;;;0.65;0.50;;;;;;;33.02;26.70;100338.34;5000052;28;20050;-72
2021/09/19 12:02:50;;;;;;;0.50;0.20;;;;;;;33.92;25.94;100349.28;4984576;28;20030;-72
2021/09/19 12:05:15;;;;;;;0.65;0.30;;;;;;;33.92;25.19;100348.47;4986806;28;20030;-72
2021/09/19 12:07:41;;;;;;;1.75;0.40;;;;;;;33.11;24.64;100347.09;5003201;28;20559;-73
2021/09/19 12:10:07;;;;;;;2.35;0.30;;;;;;;32.04;25.62;100352.56;4983777;28;20507;-73
2021/09/19 12:12:32;;;;;;;1.45;0.55;;;;;;;30.98;27.18;100350.66;4999364;28;20045;-73
2021/09/19 12:14:58;;;;;;;1.00;0.55;;;;;;;30.01;27.63;100348.72;4988637;28;20105;-72
2021/09/19 12:17:29;;;;;;;2.78;0.50;;;;;;;29.14;29.19;100352.44;4963899;28;20038;-73
2021/09/19 12:20:00;;;;;;;0.52;0.47;;;;;;;28.37;30.20;100348.34;4975540;28;20069;-74
2021/09/19 12:22:27;;;;;;;1.10;0.50;;;;;;;27.91;31.01;100343.09;4972505;28;20038;-73
2021/09/19 12:25:05;;;;;;;0.40;0.30;;;;;;;28.20;31.85;100340.56;4984054;28;20102;-72
2021/09/19 12:27:43;;;;;;;1.00;0.50;;;;;;;29.12;30.56;100350.03;4964613;28;20038;-73
2021/09/19 12:30:14;;;;;;;0.35;0.35;;;;;;;29.28;29.84;100340.47;4964341;28;20477;-72
2021/09/19 12:32:50;;;;;;;3.00;0.52;;;;;;;29.38;29.75;100339.69;4964905;28;20127;-73
2021/09/19 12:35:23;;;;;;;0.95;0.38;;;;;;;29.84;30.21;100344.66;4975803;28;20034;-73
2021/09/19 12:37:50;;;;;;;0.93;0.40;;;;;;;30.64;29.40;100342.69;4980691;28;20031;-74
2021/09/19 12:40:18;;;;;;;1.00;0.30;;;;;;;30.79;28.06;100346.25;4988040;28;20061;-73
2021/09/19 12:42:45;;;;;;;0.50;0.30;;;;;;;30.50;27.64;100351.16;4986408;28;20086;-72
2021/09/19 12:45:12;;;;;;;0.93;0.40;;;;;;;30.30;27.90;100334.63;4961081;28;20030;-73
2021/09/19 12:47:39;;;;;;;1.13;0.57;;;;;;;29.89;28.37;100340.66;4982344;28;20026;-72
2021/09/19 12:50:11;;;;;;;0.35;0.30;;;;;;;29.93;28.88;100347.09;4985348;28;20034;-72
2021/09/19 12:52:37;;;;;;;1.10;0.50;;;;;;;29.96;28.83;100345.50;4970715;28;20034;-73
2021/09/19 12:55:04;;;;;;;0.98;0.32;;;;;;;29.54;29.35;100342.97;4976141;28;20054;-73
2021/09/19 12:57:31;;;;;;;0.43;0.32;;;;;;;29.12;30.10;100349.22;4981073;28;20086;-72
2021/09/19 12:59:57;;;;;;;1.80;0.60;;;;;;;28.85;30.34;100336.22;4966820;28;20028;-73
2021/09/19 13:02:22;;;;;;;1.73;0.68;;;;;;;28.24;30.87;100346.22;4964627;28;20171;-72
2021/09/19 13:04:48;;;;;;;0.52;0.22;;;;;;;27.59;31.90;100335.16;4984662;28;20027;-75
2021/09/19 13:07:14;;;;;;;0.60;0.22;;;;;;;27.34;32.49;100335.66;4959358;28;20386;-75
2021/09/19 13:09:41;;;;;;;0.40;0.25;;;;;;;27.25;32.55;100332.34;4982463;28;20034;-75
2021/09/19 13:12:08;;;;;;;0.80;0.20;;;;;;;27.35;33.22;100342.13;4983686;28;20046;-75
2021/09/19 13:14:34;;;;;;;0.20;0.20;;;;;;;27.44;32.75;100334.19;4983488;28;20054;-75
2021/09/19 13:17:19;;;;;;;;;;;;;;;;;;;;;
2021/09/19 13:19:44;;;;;;;;;;;;;;;26.96;33.45;100337.56;4999819;28;20114;-72
2021/09/19 13:22:10;;;;;;;0.82;0.30;;;;;;;26.83;34.09;100334.19;5000404;28;19987;-76
2021/09/19 13:24:38;;;;;;;0.40;0.30;;;;;;;27.04;34.00;100327.25;5009103;28;20062;-77
2021/09/19 13:39:03;;;;;;;;;;;;;;;27.31;33.25;100336.41;6073550;22;20996;-74
2021/09/19 13:41:35;;;;;;;0.60;0.17;;;;;;;27.09;33.87;100334.53;5005482;28;19940;-74
2021/09/19 15:39:38;;;;;;;0.70;0.22;;;;;;;22.91;45.36;100353.31;5010623;28;20047;-73
2021/09/19 15:42:04;;;;;;;1.15;0.30;;;;;;;23.04;45.56;100345.72;4990015;28;20488;-74
2021/09/19 15:44:30;;;;;;;0.60;0.50;;;;;;;23.23;45.49;100347.91;5004062;28;20033;-73
2021/09/19 15:46:55;;;;;;;0.60;0.30;;;;;;;23.41;44.46;100354.00;5019636;28;20021;-71
2021/09/19 15:49:21;;;;;;;2.05;0.30;;;;;;;23.60;44.67;100350.56;4986011;28;20530;-71
2021/09/19 15:51:46;;;;;;;0.50;0.20;;;;;;;23.82;44.52;100347.16;5019710;28;20037;-70
2021/09/19 15:54:12;;;;;;;0.65;0.40;;;;;;;23.96;44.15;100348.75;4978024;28;20100;-71
2021/09/19 15:56:38;;;;;;;0.68;0.30;;;;;;;24.18;43.37;100353.72;4979271;28;20022;-71
2021/09/19 15:59:04;;;;;;;0.55;0.20;;;;;;;24.40;42.97;100351.47;5015915;28;20021;-73
2021/09/19 16:01:30;;;;;;;0.43;0.22;;;;;;;24.57;42.23;100353.06;5010767;28;20030;-73
2021/09/19 16:03:57;;;;;;;0.75;0.30;;;;;;;24.98;42.92;100350.81;4997422;28;20030;-72
2021/09/19 16:06:26;;;;;;;0.22;0.20;;;;;;;25.90;42.38;100358.66;4997091;28;20484;-73
2021/09/19 16:09:48;;;;;;;;;;;;;;;;;;;;;
2021/09/19 16:12:14;;;;;;;0.28;0.22;;;;;;;27.89;38.62;100358.72;5659341;23;20082;-72
2021/09/19 16:14:39;;;;;;;0.13;0.13;;;;;;;27.61;38.54;100354.41;4978767;28;20302;-73
2021/09/19 16:17:05;;;;;;;1.13;0.28;;;;;;;27.27;38.34;100358.00;4999975;28;20373;-74
2021/09/19 16:19:30;;;;;;;2.58;0.20;;;;;;;26.99;38.47;100364.06;4981158;28;20069;-74
2021/09/19 16:21:55;;;;;;;0.40;0.40;;;;;;;26.67;38.46;100369.97;4995119;28;20431;-74
2021/09/19 16:24:24;;;;;;;0.60;0.30;;;;;;;26.32;38.57;100370.25;4982225;28;20022;-72
2021/09/19 16:27:06;;;;;;;0.25;0.25;;;;;;;25.89;39.71;100376.66;4990663;28;20043;-70
2021/09/19 16:30:08;;;;;;;0.40;0.20;;;;;;;25.50;39.95;100364.72;4992942;28;20134;-72
2021/09/19 16:35:33;;;;;;;;;;;;;;;24.73;40.33;100379.00;5052190;23;20060;-71
2021/09/19 16:37:59;;;;;;;0.88;0.50;;;;;;;24.32;41.70;100377.59;4997588;28;19928;-72
2021/09/19 16:40:24;;;;;;;0.90;0.50;;;;;;;24.10;42.53;100377.06;4999721;28;20415;-74
2021/09/19 16:43:15;;;;;;;0.30;0.20;;;;;;;23.92;42.11;100379.38;4997782;28;20037;-71
2021/09/19 16:45:42;;;;;;;1.83;0.65;;;;;;;23.76;42.55;100379.31;5010377;28;20038;-72
2021/09/19 16:48:43;;;;;;;1.55;0.50;;;;;;;23.50;42.78;100369.44;4995837;28;20037;-70
2021/09/19 16:51:10;;;;;;;3.85;0.50;;;;;;;23.31;43.13;100380.44;5014074;28;20026;-73
2021/09/19 16:54:12;;;;;;;0.93;0.43;;;;;;;23.10;43.93;100377.78;5016090;28;20033;-72
2021/09/19 16:59:12;;;;;;;0.80;0.65;;;;;;;22.37;45.85;100385.88;4981608;28;20058;-70
2021/09/19 17:02:01;;;;;;;3.20;0.93;;;;;;;22.05;46.41;100380.00;4958328;28;20121;-71
2021/09/19 17:04:27;;;;;;;5.07;0.50;;;;;;;21.90;46.73;100378.69;4977577;28;20102;-72
2021/09/19 17:06:53;;;;;;;1.25;0.90;;;;;;;21.82;46.89;100376.00;4981017;28;20026;-73
2021/09/19 17:09:19;;;;;;;3.25;1.10;;;;;;;21.74;47.74;100381.31;4976334;28;20032;-73
2021/09/19 17:11:45;;;;;;;2.63;1.00;;;;;;;21.64;47.62;100381.75;4972348;28;20479;-73
2021/09/19 17:14:10;;;;;;;5.30;0.90;;;;;;;21.63;48.21;100382.09;4971046;28;20667;-71
2021/09/19 17:16:38;;;;;;;0.90;0.80;;;;;;;21.58;48.48;100388.66;4984755;28;20034;-73
2021/09/19 17:19:21;;;;;;;1.98;0.70;;;;;;;21.45;48.87;100383.03;4980340;28;20066;-75
2021/09/19 17:25:13;;;;;;;1.58;0.40;;;;;;;21.35;49.04;100393.72;4973513;28;20034;-73
2021/09/19 17:34:42;;;;;;;0.32;0.30;;;;;;;21.13;49.25;100392.09;4975045;28;20045;-74
2021/09/19 17:37:09;;;;;;;0.10;0.10;;;;;;;21.24;49.21;100408.03;4970926;28;20404;-74
2021/09/19 17:39:36;;;;;;;2.03;0.50;;;;;;;21.11;49.90;100400.78;4979758;28;20094;-73
2021/09/19 17:42:03;;;;;;;2.58;0.47;;;;;;;21.07;50.43;100403.44;4982800;28;20033;-74
2021/09/19 17:48:10;;;;;;;1.13;0.60;;;;;;;20.58;51.78;100403.03;4935731;29;20803;-76
2021/09/19 17:50:46;;;;;;;0.50;0.30;;;;;;;20.46;51.26;100405.69;4989423;28;20042;-74
2021/09/19 17:53:12;;;;;;;1.85;0.40;;;;;;;20.37;52.13;100411.28;4978141;28;20022;-76
2021/09/19 17:55:38;;;;;;;0.45;0.40;;;;;;;20.19;53.18;100407.78;4977543;28;20129;-76
2021/09/19 17:58:14;;;;;;;;;;;;;;;;;;;;;
2021/09/19 18:00:40;;;;;;;1.85;0.50;;;;;;;19.87;54.64;100413.56;4976324;28;20117;-75
2021/09/19 18:03:11;;;;;;;1.00;0.52;;;;;;;19.78;54.94;100428.56;4977101;28;20035;-75
2021/09/19 18:05:37;;;;;;;0.60;0.50;;;;;;;19.52;55.42;100402.50;4997315;28;20023;-75
2021/09/19 18:08:15;;;;;;;;;;;;;;;;;;;;;
2021/09/19 18:10:42;;;;;;;1.85;0.50;;;;;;;19.52;55.28;100423.84;4981734;28;20078;-74